Time;durP1;ratioP1;P1;durP2;ratioP2;P2;SDS_P1;SDS_P2;PMS_P1;PMS_P2;Temp;Humidity;BMP_temperature;BMP_pressure;BME280_temperature;BME280_humidity;BME280_pressure;Samples;Min_cycle;Max_cycle;Signal;HPM_P1;HPM_P2
2022/11/25 00:00:39;;;;;;;20.33;9.75;;;;;;;2.47;100.00;100575.69;6496348;22;20006;-76
2022/11/25 00:03:09;;;;;;;13.55;8.32;;;;;;;2.63;100.00;100574.78;6496180;22;20049;-77
2022/11/25 00:05:39;;;;;;;18.50;8.77;;;;;;;2.67;100.00;100573.91;6483637;22;20006;-76
2022/11/25 00:08:10;;;;;;;15.93;8.90;;;;;;;2.71;100.00;100577.34;6458198;22;20013;-76
2022/11/25 00:10:40;;;;;;;15.50;8.75;;;;;;;2.59;100.00;100572.22;6495840;22;20343;-76
2022/11/25 00:13:10;;;;;;;20.48;9.48;;;;;;;2.62;100.00;100561.88;6495606;22;20003;-77
2022/11/25 00:15:41;;;;;;;15.43;9.23;;;;;;;2.64;100.00;100563.59;6482590;22;20511;-77
2022/11/25 00:18:11;;;;;;;15.68;8.40;;;;;;;2.64;100.00;100565.31;6495971;22;20430;-77
2022/11/25 00:20:41;;;;;;;19.08;9.13;;;;;;;2.57;100.00;100571.38;6494986;22;20310;-75
2022/11/25 00:23:12;;;;;;;18.08;9.07;;;;;;;2.60;100.00;100568.78;6496915;22;20019;-76
2022/11/25 00:25:42;;;;;;;15.95;8.60;;;;;;;2.73;100.00;100561.00;6484883;22;20007;-76
2022/11/25 00:28:12;;;;;;;18.70;9.13;;;;;;;2.62;100.00;100554.16;6496759;22;20019;-77
2022/11/25 00:30:43;;;;;;;18.15;8.80;;;;;;;2.67;100.00;100560.16;6495828;22;20242;-76
2022/11/25 00:33:14;;;;;;;18.13;9.10;;;;;;;2.50;100.00;100556.78;6496895;22;20385;-77
2022/11/25 00:35:44;;;;;;;14.23;8.45;;;;;;;2.46;100.00;100555.94;6495784;22;19999;-77
2022/11/25 00:38:14;;;;;;;14.60;8.52;;;;;;;2.46;100.00;100561.09;6494798;22;20434;-76
2022/11/25 00:44:34;;;;;;;16.75;7.88;;;;;;;2.48;100.00;100564.53;6495631;22;20079;-76
2022/11/25 00:46:24;;;;;;;24.27;9.27;;;;;;;2.57;100.00;100568.78;6495028;22;20097;-76
2022/11/25 00:48:54;;;;;;;16.75;7.57;;;;;;;2.61;100.00;100568.78;6495978;22;20003;-76
2022/11/25 00:51:24;;;;;;;17.67;7.93;;;;;;;2.66;100.00;100568.78;6494201;22;20011;-77
2022/11/25 00:53:55;;;;;;;19.25;8.10;;;;;;;2.75;100.00;100563.56;6496570;22;20331;-76
2022/11/25 00:56:25;;;;;;;19.70;7.97;;;;;;;2.70;100.00;100570.47;6496157;22;20423;-76
2022/11/25 00:58:56;;;;;;;14.88;6.95;;;;;;;2.63;100.00;100567.06;6494932;22;20018;-76
2022/11/25 01:01:26;;;;;;;17.13;7.15;;;;;;;2.73;100.00;100565.28;6496452;22;20186;-77
2022/11/25 01:03:57;;;;;;;14.25;7.18;;;;;;;2.72;100.00;100564.41;6494925;22;20000;-73
2022/11/25 01:06:27;;;;;;;20.73;8.00;;;;;;;2.68;100.00;100572.19;6495537;22;20011;-76
2022/11/25 01:08:57;;;;;;;18.73;7.13;;;;;;;2.66;100.00;100564.44;6495603;22;20087;-77
2022/11/25 01:11:27;;;;;;;19.75;7.82;;;;;;;2.66;100.00;100563.63;6457690;22;20090;-77
2022/11/25 01:13:58;;;;;;;17.45;7.45;;;;;;;2.58;100.00;100560.19;6496108;22;20011;-76
2022/11/25 01:16:29;;;;;;;15.30;7.28;;;;;;;2.57;100.00;100564.50;6495110;22;20079;-77
2022/11/25 01:19:00;;;;;;;17.60;7.25;;;;;;;2.53;100.00;100567.09;6495428;22;19995;-77
2022/11/25 01:21:32;;;;;;;16.63;7.85;;;;;;;2.50;100.00;100564.53;6495620;22;20476;-77
2022/11/25 01:24:04;;;;;;;17.98;7.72;;;;;;;2.47;100.00;100573.13;6458109;22;20556;-77
2022/11/25 01:26:35;;;;;;;17.23;7.43;;;;;;;2.58;100.00;100557.59;6494750;22;19995;-77
2022/11/25 01:29:17;;;;;;;18.27;8.43;;;;;;;2.57;100.00;100566.22;6495382;22;20004;-76
2022/11/25 01:31:47;;;;;;;15.93;7.43;;;;;;;2.56;100.00;100565.38;6495553;22;20006;-76
2022/11/25 01:34:21;;;;;;;18.40;7.90;;;;;;;2.50;100.00;100564.53;6495819;22;20012;-76
2022/11/25 01:36:52;;;;;;;18.02;7.55;;;;;;;2.68;100.00;100561.88;6493567;22;20007;-77
2022/11/25 01:39:23;;;;;;;17.13;7.78;;;;;;;2.70;100.00;100565.31;6494437;22;20029;-76
2022/11/25 01:41:54;;;;;;;19.38;7.72;;;;;;;2.61;100.00;100553.31;6495221;22;20038;-76
2022/11/25 01:44:28;;;;;;;15.35;7.63;;;;;;;2.61;100.00;100557.59;6495656;22;20160;-77
2022/11/25 01:47:22;;;;;;;12.68;6.82;;;;;;;2.51;100.00;100543.88;6494777;22;20390;-77
2022/11/25 01:50:16;;;;;;;16.10;7.40;;;;;;;2.54;100.00;100548.19;6495027;22;19999;-76
2022/11/25 01:52:52;;;;;;;16.20;7.20;;;;;;;2.55;100.00;100547.31;6495432;22;20031;-76
2022/11/25 01:55:28;;;;;;;17.02;7.53;;;;;;;2.57;100.00;100543.00;6494470;22;20000;-73
2022/11/25 01:58:04;;;;;;;13.15;7.15;;;;;;;2.58;100.00;100535.28;6492214;22;20401;-76
2022/11/25 02:00:36;;;;;;;14.70;7.22;;;;;;;2.64;100.00;100534.34;6457447;22;20246;-77
2022/11/25 02:03:08;;;;;;;11.88;6.13;;;;;;;2.69;100.00;100525.75;6495305;22;20061;-76
2022/11/25 02:05:49;;;;;;;12.23;6.53;;;;;;;2.56;100.00;100539.59;6495032;22;20004;-77
2022/11/25 02:08:22;;;;;;;13.55;6.20;;;;;;;2.44;100.00;100534.47;6494895;22;20011;-76
2022/11/25 02:10:54;;;;;;;13.30;6.55;;;;;;;2.38;100.00;100528.47;6457129;22;20007;-76
2022/11/25 02:13:25;;;;;;;14.43;6.60;;;;;;;2.36;100.00;100533.63;6495199;22;20035;-77
2022/11/25 02:15:55;;;;;;;18.15;6.45;;;;;;;2.39;100.00;100535.34;6456386;22;20434;-78
2022/11/25 02:18:26;;;;;;;16.75;6.53;;;;;;;2.44;100.00;100531.00;6494796;22;20049;-75
2022/11/25 02:20:56;;;;;;;14.63;6.20;;;;;;;2.40;100.00;100529.31;6494587;22;20015;-77
2022/11/25 02:23:50;;;;;;;13.07;5.90;;;;;;;2.49;100.00;100529.28;6484434;22;20335;-77
2022/11/25 02:26:21;;;;;;;15.48;5.70;;;;;;;2.61;100.00;100517.19;6456032;22;20007;-77
2022/11/25 02:28:51;;;;;;;11.50;4.60;;;;;;;2.76;100.00;100524.00;6494227;22;20004;-76
2022/11/25 02:31:22;;;;;;;11.00;4.47;;;;;;;2.82;100.00;100524.81;6495028;22;20000;-77
2022/11/25 02:33:52;;;;;;;15.98;5.25;;;;;;;2.77;100.00;100520.53;6484515;22;20007;-76
2022/11/25 02:36:23;;;;;;;12.23;5.13;;;;;;;2.62;100.00;100530.94;6494965;22;19999;-76
2022/11/25 02:38:54;;;;;;;13.73;4.88;;;;;;;2.48;100.00;100527.59;6456639;22;19996;-76
2022/11/25 02:41:38;;;;;;;13.05;4.88;;;;;;;2.50;100.00;100515.53;6495898;22;20000;-76
2022/11/25 02:44:08;;;;;;;11.02;5.45;;;;;;;2.40;100.00;100522.44;6493899;22;20007;-76
2022/11/25 02:46:39;;;;;;;13.77;5.82;;;;;;;2.16;100.00;100532.81;6494324;22;20450;-76
2022/11/25 02:49:09;;;;;;;11.70;5.40;;;;;;;2.08;100.00;100533.72;6494162;22;20391;-77
2022/11/25 02:51:43;;;;;;;13.52;6.28;;;;;;;2.10;100.00;100529.41;6494511;22;20440;-77
2022/11/25 02:54:15;;;;;;;14.57;6.45;;;;;;;2.13;100.00;100525.09;6494304;22;20010;-77
2022/11/25 02:56:45;;;;;;;14.70;6.18;;;;;;;2.14;100.00;100515.66;6493969;22;20044;-77
2022/11/25 02:59:15;;;;;;;12.20;6.38;;;;;;;2.13;100.00;100524.25;6494430;22;20000;-75
2022/11/25 03:01:46;;;;;;;17.08;6.78;;;;;;;2.11;100.00;100525.97;6484527;22;20006;-76
2022/11/25 03:04:16;;;;;;;14.18;6.35;;;;;;;2.09;100.00;100528.56;6456968;22;20070;-76
2022/11/25 03:06:46;;;;;;;11.93;6.65;;;;;;;2.14;100.00;100533.72;6456519;22;20046;-76
2022/11/25 03:09:16;;;;;;;12.45;5.78;;;;;;;2.15;100.00;100528.53;6494715;22;20003;-76
2022/11/25 03:14:36;;;;;;;14.43;6.30;;;;;;;2.34;100.00;100517.31;6495140;22;20014;-77
2022/11/25 03:17:06;;;;;;;17.45;7.55;;;;;;;2.53;100.00;100518.94;6494193;22;20003;-76
2022/11/25 03:19:36;;;;;;;14.35;7.43;;;;;;;2.52;100.00;100518.97;6481815;22;19996;-76
2022/11/25 03:22:07;;;;;;;15.95;7.70;;;;;;;2.58;100.00;100517.22;6494700;22;20037;-76
2022/11/25 03:24:37;;;;;;;14.98;8.23;;;;;;;2.62;100.00;100512.88;6493975;22;20000;-76
2022/11/25 03:27:07;;;;;;;19.17;8.30;;;;;;;2.46;100.00;100511.22;6456711;22;20015;-77
2022/11/25 03:29:38;;;;;;;17.17;7.93;;;;;;;2.56;100.00;100505.19;6495265;22;20343;-77
2022/11/25 03:32:08;;;;;;;14.50;7.82;;;;;;;2.63;100.00;100512.00;6497375;22;20000;-75
2022/11/25 03:34:38;;;;;;;19.58;8.25;;;;;;;2.63;100.00;100506.84;6458482;22;20038;-76
2022/11/25 03:37:09;;;;;;;18.42;8.63;;;;;;;2.65;100.00;100520.63;6495883;22;20320;-77
2022/11/25 03:39:39;;;;;;;19.67;8.30;;;;;;;2.75;100.00;100517.13;6496555;22;20014;-76
2022/11/25 03:42:10;;;;;;;19.73;8.68;;;;;;;2.70;100.00;100508.56;6496276;22;20327;-76
2022/11/25 03:44:40;;;;;;;17.35;8.85;;;;;;;2.66;100.00;100517.19;6486505;22;20015;-76
2022/11/25 03:47:11;;;;;;;20.90;8.85;;;;;;;2.70;100.00;100513.72;6496474;22;20007;-77
2022/11/25 03:49:41;;;;;;;18.00;8.32;;;;;;;2.69;100.00;100506.84;6496362;22;20339;-77
2022/11/25 03:52:11;;;;;;;15.75;8.43;;;;;;;2.61;100.00;100498.28;6496518;22;20512;-77
2022/11/25 03:54:42;;;;;;;18.20;8.73;;;;;;;2.63;100.00;100504.28;6496328;22;20405;-77
2022/11/25 03:57:12;;;;;;;19.50;7.97;;;;;;;2.64;100.00;100513.72;6495351;22;20015;-77
2022/11/25 03:59:42;;;;;;;21.55;8.98;;;;;;;2.64;100.00;100524.03;6458181;22;20003;-76
2022/11/25 04:02:13;;;;;;;20.70;8.60;;;;;;;2.65;100.00;100516.31;6496278;22;19999;-77
2022/11/25 04:04:43;;;;;;;17.05;8.20;;;;;;;2.71;100.00;100516.28;6483591;22;20031;-77
2022/11/25 04:07:14;;;;;;;21.45;8.93;;;;;;;2.59;100.00;100518.94;6495280;22;20007;-75
2022/11/25 04:09:44;;;;;;;34.22;15.18;;;;;;;2.59;100.00;100518.06;6495974;22;20038;-77
2022/11/25 04:15:04;;;;;;;13.00;7.07;;;;;;;2.74;100.00;100515.41;6496022;22;20010;-77
2022/11/25 04:17:34;;;;;;;19.83;8.02;;;;;;;2.80;100.00;100520.53;6496001;22;20075;-76
2022/11/25 04:20:05;;;;;;;15.75;7.47;;;;;;;2.83;100.00;100510.22;6458183;22;20026;-77
2022/11/25 04:22:35;;;;;;;19.13;7.03;;;;;;;2.74;100.00;100521.44;6496226;22;20000;-76
2022/11/25 04:25:06;;;;;;;13.02;6.07;;;;;;;2.80;100.00;100515.34;6494700;22;20247;-77
2022/11/25 04:27:36;;;;;;;20.23;7.15;;;;;;;2.70;100.00;100511.97;6495692;22;20346;-76
2022/11/25 04:30:08;;;;;;;13.70;6.40;;;;;;;2.65;100.00;100507.72;6495057;22;20004;-76
2022/11/25 04:32:38;;;;;;;15.50;6.05;;;;;;;2.72;100.00;100514.56;6496381;22;20342;-77
2022/11/25 04:35:09;;;;;;;17.10;6.25;;;;;;;2.79;100.00;100517.09;6484957;22;20075;-77
2022/11/25 04:37:39;;;;;;;12.95;5.90;;;;;;;2.72;100.00;100517.13;6495552;22;20294;-76
2022/11/25 04:40:10;;;;;;;14.45;6.07;;;;;;;2.66;100.00;100514.59;6485054;22;20004;-76
2022/11/25 04:42:40;;;;;;;14.77;5.80;;;;;;;2.65;100.00;100518.06;6495579;22;20014;-76
2022/11/25 04:45:14;;;;;;;15.68;6.10;;;;;;;2.58;100.00;100518.94;6495973;22;20012;-77
2022/11/25 04:47:44;;;;;;;12.25;6.07;;;;;;;2.56;100.00;100523.22;6457057;22;19996;-77
2022/11/25 04:50:19;;;;;;;16.80;6.35;;;;;;;2.57;100.00;100515.50;6454768;22;20466;-78
2022/11/25 04:52:50;;;;;;;16.25;5.57;;;;;;;2.54;100.00;100523.22;6493443;22;20045;-77
2022/11/25 04:55:20;;;;;;;11.60;5.70;;;;;;;2.69;100.00;100520.59;6456139;22;20302;-77
2022/11/25 04:57:50;;;;;;;17.05;6.22;;;;;;;2.57;100.00;100522.38;6494882;22;20030;-76
2022/11/25 05:00:21;;;;;;;12.48;5.72;;;;;;;2.54;100.00;100519.81;6495595;22;20003;-77
2022/11/25 05:02:51;;;;;;;14.00;6.28;;;;;;;2.47;100.00;100518.97;6495680;22;20075;-77
2022/11/25 05:05:22;;;;;;;13.00;5.57;;;;;;;2.48;100.00;100522.44;6495736;22;20418;-76
2022/11/25 05:07:52;;;;;;;15.40;6.15;;;;;;;2.48;100.00;100515.53;6495563;22;20007;-76
2022/11/25 05:10:22;;;;;;;14.27;5.68;;;;;;;2.49;100.00;100516.41;6483462;22;20079;-77
2022/11/25 05:12:53;;;;;;;12.48;5.80;;;;;;;2.52;100.00;100516.38;6457969;22;20004;-77
2022/11/25 05:15:23;;;;;;;13.13;5.45;;;;;;;2.40;100.00;100519.88;6495414;22;19999;-76
2022/11/25 05:17:53;;;;;;;13.57;5.78;;;;;;;2.37;100.00;100513.88;6495457;22;19999;-76
2022/11/25 05:20:23;;;;;;;12.38;6.05;;;;;;;2.43;100.00;100511.25;6495887;22;20522;-77
2022/11/25 05:22:54;;;;;;;15.65;6.10;;;;;;;2.43;100.00;100513.81;6495636;22;19995;-77
2022/11/25 05:25:25;;;;;;;16.05;6.32;;;;;;;2.46;100.00;100517.25;6482896;22;20004;-76
2022/11/25 05:27:55;;;;;;;16.75;6.65;;;;;;;2.51;100.00;100522.41;6481654;22;20004;-76
2022/11/25 05:30:26;;;;;;;15.13;6.60;;;;;;;2.49;100.00;100524.97;6494999;22;20022;-78
2022/11/25 05:32:56;;;;;;;17.17;6.95;;;;;;;2.54;100.00;100517.22;6495180;22;20030;-77
2022/11/25 05:35:26;;;;;;;23.05;6.70;;;;;;;2.63;100.00;100512.88;6482089;22;20010;-77
2022/11/25 05:37:59;;;;;;;14.82;6.00;;;;;;;2.63;100.00;100517.16;6457890;22;20324;-77
2022/11/25 05:40:30;;;;;;;17.02;6.10;;;;;;;2.75;100.00;100512.84;6456899;22;20382;-77
2022/11/25 05:43:02;;;;;;;16.27;5.75;;;;;;;2.77;100.00;100520.53;6495962;22;20010;-77
2022/11/25 05:45:32;;;;;;;14.32;5.38;;;;;;;2.84;100.00;100523.09;6495415;22;19999;-77
2022/11/25 05:48:02;;;;;;;13.57;5.85;;;;;;;2.79;100.00;100517.09;6495487;22;19999;-77
2022/11/25 05:50:33;;;;;;;15.70;5.97;;;;;;;2.91;100.00;100513.59;6494698;22;20002;-77
2022/11/25 05:53:04;;;;;;;14.00;5.70;;;;;;;2.71;100.00;100518.00;6494271;22;20004;-77
2022/11/25 05:55:34;;;;;;;13.18;5.90;;;;;;;2.61;100.00;100513.75;6495831;22;20093;-75
2022/11/25 05:58:05;;;;;;;13.93;5.60;;;;;;;2.59;100.00;100511.19;6456757;22;19999;-77
2022/11/25 06:00:35;;;;;;;11.98;5.93;;;;;;;2.45;100.00;100518.13;6494863;22;20003;-78
2022/11/25 06:03:05;;;;;;;14.13;5.55;;;;;;;2.44;100.00;100511.25;6457514;22;20342;-78
2022/11/25 06:05:35;;;;;;;14.25;5.78;;;;;;;2.37;100.00;100514.69;6494930;22;20435;-77
2022/11/25 06:08:06;;;;;;;15.05;6.15;;;;;;;2.33;100.00;100522.47;6494681;22;20004;-77
2022/11/25 06:10:39;;;;;;;13.80;5.85;;;;;;;2.37;100.00;100503.56;6494799;22;20071;-76
2022/11/25 06:13:09;;;;;;;19.45;5.47;;;;;;;2.43;100.00;100519.84;6495508;22;20049;-77
2022/11/25 06:15:41;;;;;;;11.65;5.35;;;;;;;2.67;100.00;100511.16;6495081;22;20007;-76
2022/11/25 06:18:13;;;;;;;12.18;4.97;;;;;;;2.61;100.00;100506.00;6495460;22;20398;-77
2022/11/25 06:20:44;;;;;;;14.73;4.75;;;;;;;2.71;100.00;100510.28;6494719;22;20438;-76
2022/11/25 06:23:14;;;;;;;10.68;3.83;;;;;;;2.71;100.00;100505.94;6495381;22;20010;-76
2022/11/25 06:25:44;;;;;;;11.20;4.07;;;;;;;2.60;100.00;100499.13;6494404;22;20077;-76
2022/11/25 06:28:15;;;;;;;13.82;3.95;;;;;;;2.56;100.00;100502.59;6494893;22;20005;-77
2022/11/25 06:30:45;;;;;;;12.15;4.10;;;;;;;2.45;100.00;100512.09;6494365;22;20346;-77
2022/11/25 06:33:15;;;;;;;16.23;4.25;;;;;;;2.55;100.00;100514.66;6455884;22;20015;-76
2022/11/25 06:35:46;;;;;;;12.60;4.05;;;;;;;2.48;100.00;100512.94;6492800;22;20003;-76
2022/11/25 06:38:16;;;;;;;13.18;3.63;;;;;;;2.47;100.00;100510.41;6494932;22;20381;-76
2022/11/25 06:40:46;;;;;;;12.20;3.97;;;;;;;2.49;100.00;100518.97;6493454;22;20010;-76
2022/11/25 06:43:17;;;;;;;16.58;3.60;;;;;;;2.51;100.00;100522.41;6493664;22;20010;-77
2022/11/25 06:45:47;;;;;;;11.95;3.67;;;;;;;2.53;100.00;100525.84;6493122;22;20366;-76
2022/11/25 06:48:17;;;;;;;11.23;3.40;;;;;;;2.57;100.00;100523.25;6494371;22;20000;-75
2022/11/25 06:51:14;;;;;;;16.77;4.10;;;;;;;2.83;100.00;100515.38;6484079;22;20363;-76
2022/11/25 06:53:45;;;;;;;15.48;3.80;;;;;;;2.86;100.00;100521.34;6481798;22;20092;-76
2022/11/25 06:56:21;;;;;;;15.52;4.10;;;;;;;2.92;100.00;100520.47;6495118;22;20427;-76
2022/11/25 06:58:53;;;;;;;11.82;3.13;;;;;;;2.82;100.00;100518.81;6456819;22;20435;-75
2022/11/25 07:01:26;;;;;;;15.02;3.80;;;;;;;2.72;100.00;100528.28;6494831;22;20004;-76
2022/11/25 07:04:02;;;;;;;10.20;3.47;;;;;;;2.79;100.00;100523.97;6495824;22;20053;-76
2022/11/25 07:06:32;;;;;;;15.25;4.00;;;;;;;2.66;100.00;100528.34;6496314;22;20077;-76
2022/11/25 07:09:04;;;;;;;8.55;2.83;;;;;;;2.74;100.00;100520.56;6459349;22;19995;-76
2022/11/25 07:11:38;;;;;;;10.88;3.88;;;;;;;2.87;100.00;100532.53;6496805;22;20331;-76
2022/11/25 07:14:13;;;;;;;12.00;3.67;;;;;;;2.83;100.00;100526.53;6497921;22;20553;-76
2022/11/25 07:16:44;;;;;;;13.38;3.67;;;;;;;2.90;100.00;100533.41;6486049;22;20042;-76
2022/11/25 07:19:17;;;;;;;12.55;3.85;;;;;;;2.93;100.00;100538.53;6496477;22;20003;-76
2022/11/25 07:21:47;;;;;;;9.73;3.70;;;;;;;3.03;100.00;100541.91;6496194;22;20459;-76
2022/11/25 07:24:17;;;;;;;11.25;4.10;;;;;;;3.09;100.00;100544.44;6496333;22;19999;-76
2022/11/25 07:26:47;;;;;;;14.27;3.88;;;;;;;3.11;100.00;100542.72;6497194;22;20011;-76
2022/11/25 07:29:18;;;;;;;15.57;3.88;;;;;;;3.11;100.00;100537.53;6495893;22;20026;-76
2022/11/25 07:31:49;;;;;;;15.25;3.95;;;;;;;3.09;100.00;100540.16;6497067;22;20002;-76
2022/11/25 07:34:20;;;;;;;14.63;3.95;;;;;;;3.16;100.00;100543.56;6497743;22;20338;-76
2022/11/25 07:36:50;;;;;;;12.32;3.60;;;;;;;3.28;100.00;100549.50;6497271;22;20011;-74
2022/11/25 07:39:22;;;;;;;16.45;3.70;;;;;;;3.57;100.00;100544.09;6496533;22;19996;-76
2022/11/25 07:41:53;;;;;;;12.00;3.40;;;;;;;3.65;100.00;100553.50;6496746;22;20078;-76
2022/11/25 07:44:23;;;;;;;16.10;3.83;;;;;;;3.67;100.00;100554.34;6497013;22;20003;-76
2022/11/25 07:46:53;;;;;;;9.88;3.25;;;;;;;3.87;100.00;100553.31;6458589;22;20011;-76
2022/11/25 07:49:24;;;;;;;13.73;3.60;;;;;;;4.12;100.00;100559.94;6458563;22;20438;-76
2022/11/25 07:51:58;;;;;;;12.40;3.75;;;;;;;4.15;100.00;100557.31;6483942;22;20041;-76
2022/11/25 07:54:30;;;;;;;13.73;2.95;;;;;;;4.12;100.00;100556.53;6496650;22;20460;-76
2022/11/25 07:57:00;;;;;;;15.40;3.25;;;;;;;4.00;100.00;100562.69;6458954;22;20010;-76
2022/11/25 07:59:30;;;;;;;10.80;2.92;;;;;;;4.07;100.00;100556.56;6496602;22;20075;-77
2022/11/25 08:02:00;;;;;;;12.60;2.70;;;;;;;4.29;100.00;100560.63;6459004;22;20450;-76
2022/11/25 08:04:31;;;;;;;9.73;2.65;;;;;;;4.17;100.00;100565.09;6484360;22;20078;-77
2022/11/25 08:07:01;;;;;;;11.82;2.75;;;;;;;4.27;100.00;100557.22;6496023;22;20010;-76
2022/11/25 08:09:32;;;;;;;16.35;3.38;;;;;;;4.29;100.00;100558.03;6496596;22;20011;-77
2022/11/25 08:12:02;;;;;;;13.35;3.30;;;;;;;4.35;100.00;100565.75;6496685;22;20000;-75
2022/11/25 08:14:33;;;;;;;11.30;3.15;;;;;;;4.34;100.00;100576.97;6495965;22;20038;-76
2022/11/25 08:17:04;;;;;;;12.15;3.28;;;;;;;4.49;100.00;100569.03;6494394;22;19995;-77
2022/11/25 08:19:35;;;;;;;13.82;3.10;;;;;;;4.60;100.00;100574.94;6495609;22;20019;-77
2022/11/25 08:22:06;;;;;;;15.25;3.08;;;;;;;4.62;100.00;100572.34;6495254;22;20031;-76
2022/11/25 08:24:36;;;;;;;11.35;3.03;;;;;;;4.72;100.00;100573.94;6457733;22;20158;-76
2022/11/25 08:27:06;;;;;;;11.80;3.22;;;;;;;4.82;100.00;100584.16;6494623;22;20086;-75
2022/11/25 08:29:37;;;;;;;13.38;3.35;;;;;;;4.92;100.00;100590.94;6458287;22;20000;-77
2022/11/25 08:32:08;;;;;;;14.07;3.53;;;;;;;4.96;100.00;100592.63;6498152;22;20003;-76
2022/11/25 08:34:38;;;;;;;13.25;3.15;;;;;;;4.97;100.00;100604.69;6460513;22;20316;-76
2022/11/25 08:37:08;;;;;;;14.30;2.80;;;;;;;5.02;100.00;100594.28;6497305;22;20233;-76
2022/11/25 08:39:39;;;;;;;9.20;2.53;;;;;;;5.14;100.00;100601.88;6496181;22;20076;-77
2022/11/25 08:42:09;;;;;;;14.32;3.13;;;;;;;5.23;100.00;100605.22;6497325;22;20057;-76
2022/11/25 08:44:39;;;;;;;15.82;3.00;;;;;;;5.40;100.00;100605.84;6496708;22;20061;-76
2022/11/25 08:47:10;;;;;;;10.40;2.67;;;;;;;5.56;100.00;100607.31;6496574;22;20342;-75
2022/11/25 08:49:40;;;;;;;12.63;3.10;;;;;;;5.62;100.00;100610.69;6495256;22;20343;-76
2022/11/25 08:52:11;;;;;;;17.55;3.47;;;;;;;5.67;100.00;100606.28;6495163;22;20000;-77
2022/11/25 08:54:41;;;;;;;16.20;3.20;;;;;;;5.81;100.00;100598.31;6482896;22;20011;-76
2022/11/25 08:57:12;;;;;;;18.73;3.70;;;;;;;5.80;100.00;100602.66;6496014;22;20104;-77
2022/11/25 08:59:42;;;;;;;13.82;3.13;;;;;;;5.91;100.00;100605.06;6497081;22;20340;-76
2022/11/25 09:02:15;;;;;;;12.10;3.17;;;;;;;6.02;100.00;100597.94;6496329;22;20077;-76
2022/11/25 09:04:45;;;;;;;12.00;3.20;;;;;;;6.01;100.00;100601.44;6458916;22;20003;-77
2022/11/25 09:07:15;;;;;;;13.90;2.72;;;;;;;6.16;100.00;100606.34;6495898;22;20006;-76
2022/11/25 09:09:46;;;;;;;12.35;2.90;;;;;;;6.26;100.00;100608.75;6457836;22;20003;-77
2022/11/25 09:12:16;;;;;;;15.90;3.67;;;;;;;6.32;100.00;100597.41;6458562;22;20007;-77
2022/11/25 09:14:46;;;;;;;14.88;3.08;;;;;;;6.37;100.00;100605.97;6495540;22;20080;-77
2022/11/25 09:17:17;;;;;;;14.23;3.35;;;;;;;6.41;100.00;100605.88;6483626;22;20078;-77
2022/11/25 09:19:47;;;;;;;15.98;3.00;;;;;;;6.46;100.00;100616.19;6485162;22;19996;-77
2022/11/25 09:22:17;;;;;;;13.25;3.13;;;;;;;6.42;100.00;100610.19;6496086;22;19999;-77
2022/11/25 09:24:48;;;;;;;13.80;3.13;;;;;;;6.38;100.00;100611.16;6495831;22;20006;-77
2022/11/25 09:27:18;;;;;;;13.35;3.17;;;;;;;6.34;100.00;100616.41;6496667;22;19996;-77
2022/11/25 09:29:48;;;;;;;10.82;3.28;;;;;;;6.19;100.00;100625.34;6484127;22;20004;-78
2022/11/25 09:32:19;;;;;;;13.68;3.20;;;;;;;6.12;100.00;100631.47;6496189;22;20011;-78
2022/11/25 09:34:49;;;;;;;14.23;3.20;;;;;;;6.02;100.00;100632.53;6495996;22;20042;-78
2022/11/25 09:37:19;;;;;;;15.25;3.15;;;;;;;6.03;100.00;100641.16;6496409;22;20010;-77
2022/11/25 09:39:54;;;;;;;13.25;3.60;;;;;;;6.09;100.00;100636.72;6496450;22;20000;-77
2022/11/25 09:48:55;;;;;;;11.63;3.60;;;;;;;6.04;100.00;100635.97;6484994;22;20047;-77
2022/11/25 09:51:38;;;;;;;13.20;3.75;;;;;;;6.18;100.00;100635.72;6495808;22;20500;-75
2022/11/25 09:54:14;;;;;;;19.52;3.95;;;;;;;6.17;100.00;100628.81;6496407;22;20355;-77
2022/11/25 09:57:02;;;;;;;17.60;4.20;;;;;;;6.11;100.00;100623.75;6458085;22;20027;-77
2022/11/25 09:59:47;;;;;;;16.50;4.40;;;;;;;6.20;100.00;100618.38;6485006;22;20000;-77
2022/11/25 10:02:28;;;;;;;12.95;3.83;;;;;;;6.31;100.00;100621.66;6496175;22;20003;-77
2022/11/25 10:05:15;;;;;;;12.20;3.90;;;;;;;6.25;100.00;100625.22;6495579;22;20083;-78
2022/11/25 10:07:51;;;;;;;11.50;3.35;;;;;;;6.33;100.00;100618.16;6496572;22;20026;-78
2022/11/25 10:10:25;;;;;;;14.80;3.83;;;;;;;6.37;100.00;100616.34;6495538;22;20478;-77
2022/11/25 10:12:57;;;;;;;11.60;4.20;;;;;;;6.47;100.00;100616.19;6495758;22;20039;-78
2022/11/25 10:15:44;;;;;;;9.50;3.60;;;;;;;6.50;100.00;100625.63;6485234;22;20004;-78
2022/11/25 10:18:24;;;;;;;14.25;3.72;;;;;;;6.75;100.00;100627.75;6496416;22;20027;-76
2022/11/25 10:20:54;;;;;;;16.40;3.85;;;;;;;6.90;100.00;100618.81;6495094;22;20479;-77
2022/11/25 10:23:32;;;;;;;15.70;3.72;;;;;;;7.01;100.00;100627.22;6496374;22;20030;-77
2022/11/25 10:26:12;;;;;;;14.98;4.03;;;;;;;6.92;100.00;100627.41;6494784;22;20453;-77
2022/11/25 10:29:16;;;;;;;13.60;3.17;;;;;;;7.03;100.00;100626.31;6496211;22;20464;-77
2022/11/25 10:31:49;;;;;;;11.68;3.30;;;;;;;7.14;100.00;100619.13;6482750;22;20347;-77
2022/11/25 10:34:30;;;;;;;19.85;3.83;;;;;;;7.38;100.00;100629.03;6493307;22;20083;-78
2022/11/25 10:37:10;;;;;;;17.58;3.60;;;;;;;7.43;100.00;100624.56;6496807;22;20062;-77
2022/11/25 10:39:41;;;;;;;11.02;2.95;;;;;;;7.49;100.00;100625.28;6495887;22;20011;-77
2022/11/25 10:42:19;;;;;;;11.23;2.95;;;;;;;7.48;100.00;100626.19;6496637;22;20459;-77
2022/11/25 10:44:51;;;;;;;14.23;2.90;;;;;;;7.54;100.00;100620.00;6457286;22;20466;-76
2022/11/25 10:47:42;;;;;;;12.82;2.92;;;;;;;7.61;100.00;100614.63;6495958;22;20337;-76
2022/11/25 10:50:50;;;;;;;21.30;4.13;;;;;;;7.54;100.00;100625.19;6494994;22;20004;-78
2022/11/25 10:53:25;;;;;;;16.65;4.20;;;;;;;7.61;100.00;100617.22;6456771;22;20035;-77
2022/11/25 10:56:08;;;;;;;20.58;4.35;;;;;;;7.58;100.00;100622.50;6496095;22;19995;-77
2022/11/25 10:58:41;;;;;;;13.82;3.42;;;;;;;7.54;100.00;100620.84;6457472;22;20000;-77
2022/11/25 11:01:17;;;;;;;16.50;3.45;;;;;;;7.58;100.00;100626.84;6495599;22;20003;-77
2022/11/25 11:03:53;;;;;;;15.27;3.45;;;;;;;7.70;100.00;100630.00;6495508;22;20006;-77
2022/11/25 11:06:44;;;;;;;14.40;3.17;;;;;;;7.73;100.00;100624.72;6495217;22;20624;-76
2022/11/25 11:09:45;;;;;;;14.77;2.75;;;;;;;7.73;100.00;100629.91;6495217;22;20000;-78
2022/11/25 11:12:27;;;;;;;13.40;2.92;;;;;;;7.66;100.00;100636.16;6451240;22;20118;-77
2022/11/25 11:15:24;;;;;;;13.05;2.95;;;;;;;7.57;100.00;100641.59;6495667;22;20007;-77
2022/11/25 11:17:56;;;;;;;17.35;3.22;;;;;;;7.65;100.00;100644.88;6495006;22;19995;-78
2022/11/25 11:20:30;;;;;;;10.57;3.17;;;;;;;7.54;100.00;100643.41;6457633;22;20000;-78
2022/11/25 11:23:07;;;;;;;11.60;2.90;;;;;;;7.49;100.00;100646.09;6493699;22;20014;-78
2022/11/25 11:25:42;;;;;;;17.50;4.07;;;;;;;7.58;100.00;100638.09;6494288;22;20062;-77
2022/11/25 11:28:32;;;;;;;17.80;4.53;;;;;;;7.61;100.00;100647.56;6495531;22;20038;-75
2022/11/25 11:31:06;;;;;;;17.05;4.10;;;;;;;7.64;100.00;100642.28;6494852;22;20004;-77
2022/11/25 11:33:49;;;;;;;10.05;3.40;;;;;;;7.82;100.00;100647.94;6495573;22;20003;-77
2022/11/25 11:36:41;;;;;;;12.32;3.47;;;;;;;7.72;100.00;100633.41;6495935;22;20453;-77
2022/11/25 11:39:29;;;;;;;9.48;3.00;;;;;;;7.85;100.00;100629.66;6496090;22;20048;-77
2022/11/25 11:42:12;;;;;;;9.57;2.80;;;;;;;7.91;100.00;100639.88;6457412;22;20014;-77
2022/11/25 11:45:01;;;;;;;17.38;3.45;;;;;;;7.79;100.00;100637.59;6495541;22;19999;-77
2022/11/25 11:47:44;;;;;;;17.85;3.60;;;;;;;8.00;100.00;100631.00;6495451;22;20000;-78
2022/11/25 11:50:23;;;;;;;9.88;2.92;;;;;;;7.82;100.00;100627.13;6495905;22;20002;-77
2022/11/25 11:52:56;;;;;;;16.95;2.92;;;;;;;7.75;100.00;100633.38;6498044;22;20422;-77
2022/11/25 11:55:53;;;;;;;16.65;3.03;;;;;;;7.80;100.00;100633.22;6497116;22;20066;-77
2022/11/25 11:58:26;;;;;;;18.10;3.33;;;;;;;7.81;100.00;100646.22;6459941;22;20011;-77